createdAt,value
2023-01-13T00:00:25.376Z,65.28
2023-01-13T00:01:25.350Z,65.28
2023-01-13T00:02:25.376Z,65.28
2023-01-13T00:03:25.298Z,65.28
2023-01-13T00:04:25.340Z,65.28
2023-01-13T00:05:25.270Z,65.28
2023-01-13T00:06:25.257Z,65.28
2023-01-13T00:07:25.275Z,65.38
2023-01-13T00:08:25.238Z,65.38
2023-01-13T00:09:25.247Z,65.38
2023-01-13T00:10:25.236Z,65.38
2023-01-13T00:11:25.202Z,65.38
2023-01-13T00:12:25.193Z,65.38
2023-01-13T00:13:25.201Z,65.38
2023-01-13T00:14:25.169Z,65.38
2023-01-13T00:15:25.159Z,65.38
2023-01-13T00:16:25.149Z,65.38
2023-01-13T00:17:25.136Z,65.38
2023-01-13T00:18:25.147Z,65.38
2023-01-13T00:19:25.117Z,65.38
2023-01-13T00:20:25.108Z,65.38
2023-01-13T00:21:25.103Z,65.28
2023-01-13T00:22:25.081Z,65.38
2023-01-13T00:23:25.075Z,65.38
2023-01-13T00:24:25.088Z,65.28
2023-01-13T00:25:25.054Z,65.38
2023-01-13T00:26:25.040Z,65.38
2023-01-13T00:27:25.031Z,65.48
2023-01-13T00:28:25.019Z,65.98
2023-01-13T00:29:25.007Z,65.98
2023-01-13T00:30:25.017Z,65.78
2023-01-13T00:31:25.052Z,65.48
2023-01-13T00:32:24.987Z,65.38
2023-01-13T00:33:24.970Z,65.48
2023-01-13T00:34:24.955Z,65.38
2023-01-13T00:35:24.966Z,65.48
2023-01-13T00:36:24.944Z,65.48
2023-01-13T00:37:24.924Z,65.48
2023-01-13T00:38:24.931Z,65.38
2023-01-13T00:39:24.910Z,65.48
2023-01-13T00:40:24.913Z,65.45
2023-01-13T00:41:24.890Z,65.38
2023-01-13T00:42:24.871Z,65.38
2023-01-13T00:43:24.866Z,65.38
2023-01-13T00:44:24.858Z,65.38
2023-01-13T00:45:24.837Z,65.38
2023-01-13T00:46:24.997Z,65.38
2023-01-13T00:47:24.813Z,65.38
2023-01-13T00:48:24.808Z,65.38
2023-01-13T00:49:24.794Z,65.48
2023-01-13T00:50:24.803Z,65.48
2023-01-13T00:51:24.774Z,65.58
2023-01-13T00:52:24.779Z,65.68
2023-01-13T00:53:24.750Z,65.88
2023-01-13T00:54:24.742Z,65.68
2023-01-13T00:55:24.729Z,65.58
2023-01-13T00:56:39.072Z,65.48
2023-01-13T00:57:24.738Z,65.58
2023-01-13T00:58:24.702Z,65.58
2023-01-13T00:59:24.716Z,65.58
2023-01-13T01:00:24.682Z,65.48
2023-01-13T01:01:24.772Z,65.48
2023-01-13T01:02:24.762Z,65.48
2023-01-13T01:03:24.666Z,65.48
2023-01-13T01:04:24.663Z,65.48
2023-01-13T01:05:24.626Z,65.58
2023-01-13T01:06:24.621Z,65.58
2023-01-13T01:07:24.603Z,65.48
2023-01-13T01:08:24.598Z,65.48
2023-01-13T01:09:24.608Z,65.38
2023-01-13T01:10:24.573Z,65.38
2023-01-13T01:11:24.564Z,65.38
2023-01-13T01:12:24.553Z,65.38
2023-01-13T01:13:24.557Z,65.38
2023-01-13T01:14:24.532Z,65.48
2023-01-13T01:15:24.541Z,65.38
2023-01-13T01:16:24.621Z,65.38
2023-01-13T01:17:24.497Z,65.38
2023-01-13T01:18:24.498Z,65.38
2023-01-13T01:19:24.477Z,65.35
2023-01-13T01:20:24.488Z,65.48
2023-01-13T01:21:24.458Z,65.48
2023-01-13T01:22:24.450Z,65.48
2023-01-13T01:23:24.437Z,65.38
2023-01-13T01:24:24.423Z,65.48
2023-01-13T01:25:24.414Z,65.38
2023-01-13T01:26:24.430Z,65.48
2023-01-13T01:27:24.399Z,65.58
2023-01-13T01:28:24.403Z,65.48
2023-01-13T01:29:24.376Z,65.38
2023-01-13T01:30:24.363Z,65.48
2023-01-13T01:31:24.441Z,65.48
2023-01-13T01:32:24.367Z,65.48
2023-01-13T01:33:24.326Z,65.48
2023-01-13T01:34:24.321Z,65.48
2023-01-13T01:35:24.312Z,65.48
2023-01-13T01:36:24.301Z,65.55
2023-01-13T01:37:24.280Z,65.58
2023-01-13T01:38:24.313Z,65.78
2023-01-13T01:39:24.264Z,65.65
2023-01-13T01:40:24.248Z,65.58
2023-01-13T01:41:24.245Z,65.48
2023-01-13T01:42:24.230Z,65.48
2023-01-13T01:43:24.247Z,65.38
2023-01-13T01:44:24.208Z,65.48
2023-01-13T01:45:24.205Z,65.48
2023-01-13T01:46:24.262Z,65.35
2023-01-13T01:47:24.175Z,65.48
2023-01-13T01:48:24.168Z,65.48
2023-01-13T01:49:24.182Z,65.38
2023-01-13T01:50:24.143Z,65.48
2023-01-13T01:51:24.130Z,65.48
2023-01-13T01:52:24.120Z,65.48
2023-01-13T01:53:24.113Z,65.58
2023-01-13T01:54:24.106Z,65.58
2023-01-13T01:55:24.113Z,65.48
2023-01-13T01:56:24.075Z,65.45
2023-01-13T01:57:24.070Z,65.48
2023-01-13T01:58:24.058Z,65.48
2023-01-13T01:59:24.048Z,65.48
2023-01-13T02:00:24.056Z,65.58
2023-01-13T02:01:24.154Z,65.58
2023-01-13T02:02:24.042Z,65.48
2023-01-13T02:03:23.998Z,65.55
2023-01-13T02:04:23.990Z,65.48
2023-01-13T02:05:23.978Z,65.48
2023-01-13T02:06:23.988Z,65.48
2023-01-13T02:07:23.965Z,65.48
2023-01-13T02:08:24.004Z,65.58
2023-01-13T02:09:23.938Z,65.55
2023-01-13T02:10:23.923Z,65.55
2023-01-13T02:11:23.916Z,65.65
2023-01-13T02:12:23.933Z,65.65
2023-01-13T02:13:23.896Z,65.55
2023-01-13T02:14:23.879Z,65.48
2023-01-13T02:15:23.885Z,65.55
2023-01-13T02:16:23.891Z,65.55
2023-01-13T02:17:24.171Z,65.58
2023-01-13T02:18:23.842Z,65.58
2023-01-13T02:19:23.830Z,65.65
2023-01-13T02:20:23.815Z,65.68
2023-01-13T02:21:23.810Z,65.58
2023-01-13T02:22:23.804Z,65.55
2023-01-13T02:23:23.856Z,65.55
2023-01-13T02:24:23.783Z,65.48
2023-01-13T02:25:23.757Z,65.55
2023-01-13T02:26:23.751Z,65.58
2023-01-13T02:27:23.755Z,65.68
2023-01-13T02:28:23.735Z,65.55
2023-01-13T02:29:23.740Z,65.58
2023-01-13T02:30:23.713Z,65.58
2023-01-13T02:31:29.749Z,65.45
2023-01-13T02:32:23.691Z,65.45
2023-01-13T02:33:23.685Z,65.58
2023-01-13T02:34:23.666Z,65.55
2023-01-13T02:35:23.669Z,65.55
2023-01-13T02:36:23.646Z,65.55
2023-01-13T02:37:23.633Z,65.45
2023-01-13T02:38:23.620Z,65.45
2023-01-13T02:39:23.608Z,65.45
2023-01-13T02:40:23.595Z,65.45
2023-01-13T02:41:23.608Z,65.45
2023-01-13T02:42:23.578Z,65.45
2023-01-13T02:43:23.566Z,65.48
2023-01-13T02:44:23.562Z,65.45
2023-01-13T02:45:23.699Z,65.45
2023-01-13T02:46:23.538Z,65.45
2023-01-13T02:47:23.559Z,65.35
2023-01-13T02:48:23.527Z,65.35
2023-01-13T02:49:23.500Z,65.45
2023-01-13T02:50:23.488Z,65.45
2023-01-13T02:51:23.473Z,65.45
2023-01-13T02:52:23.486Z,65.48
2023-01-13T02:53:23.447Z,65.48
2023-01-13T02:54:23.445Z,65.45
2023-01-13T02:55:23.429Z,65.45
2023-01-13T02:56:23.431Z,65.45
2023-01-13T02:57:23.409Z,65.35
2023-01-13T02:58:23.433Z,65.35
2023-01-13T02:59:23.409Z,65.45
2023-01-13T03:00:23.435Z,65.45
2023-01-13T03:01:23.587Z,65.45
2023-01-13T03:02:23.502Z,65.45
2023-01-13T03:03:23.363Z,65.35
2023-01-13T03:04:23.344Z,65.35
2023-01-13T03:05:23.347Z,65.35
2023-01-13T03:06:23.326Z,65.45
2023-01-13T03:07:23.321Z,65.35
2023-01-13T03:08:23.337Z,65.35
2023-01-13T03:09:23.281Z,65.35
2023-01-13T03:10:23.328Z,65.45
2023-01-13T03:11:23.277Z,65.45
2023-01-13T03:12:23.261Z,65.45
2023-01-13T03:13:23.245Z,65.45
2023-01-13T03:14:23.241Z,65.45
2023-01-13T03:15:23.236Z,65.45
2023-01-13T03:16:23.257Z,65.35
2023-01-13T03:17:23.214Z,65.25
2023-01-13T03:18:23.207Z,65.05
2023-01-13T03:19:23.177Z,64.65
2023-01-13T03:20:23.182Z,64.45
2023-01-13T03:21:23.153Z,64.15
2023-01-13T03:22:23.184Z,63.84
2023-01-13T03:23:23.131Z,63.04
2023-01-13T03:24:23.143Z,62.57
2023-01-13T03:25:23.112Z,62.47
2023-01-13T03:26:23.109Z,62.27
2023-01-13T03:27:23.110Z,62.24
2023-01-13T03:28:23.095Z,61.97
2023-01-13T03:29:23.087Z,61.36
2023-01-13T03:30:23.209Z,61.27
2023-01-13T03:31:23.041Z,60.86
2023-01-13T03:32:23.064Z,60.77
2023-01-13T03:33:23.022Z,60.97
2023-01-13T03:34:23.040Z,60.86
2023-01-13T03:35:23.012Z,60.77
2023-01-13T03:36:23.007Z,60.86
2023-01-13T03:37:22.975Z,60.66
2023-01-13T03:38:22.977Z,60.66
2023-01-13T03:39:22.980Z,60.66
2023-01-13T03:40:22.957Z,60.57
2023-01-13T03:41:22.934Z,60.36
2023-01-13T03:42:22.949Z,60.36
2023-01-13T03:43:22.909Z,60.36
2023-01-13T03:44:22.951Z,60.36
2023-01-13T03:45:22.915Z,60.47
2023-01-13T03:46:23.079Z,60.36
2023-01-13T03:47:22.868Z,60.27
2023-01-13T03:48:22.878Z,60.36
2023-01-13T03:49:22.876Z,60.27
2023-01-13T03:50:22.847Z,60.06
2023-01-13T03:51:22.826Z,60.66
2023-01-13T03:52:22.852Z,60.06
2023-01-13T03:53:22.811Z,59.86
2023-01-13T03:54:22.811Z,59.56
2023-01-13T03:55:22.774Z,59.66
2023-01-13T03:56:22.789Z,59.56
2023-01-13T03:57:22.770Z,59.56
2023-01-13T03:58:22.757Z,59.56
2023-01-13T03:59:22.764Z,59.36
2023-01-13T04:00:22.783Z,59.36
2023-01-13T04:01:22.872Z,59.26
2023-01-13T04:02:22.770Z,59.16
2023-01-13T04:03:22.748Z,59.06
2023-01-13T04:04:22.693Z,59.26
2023-01-13T04:05:22.669Z,59.26
2023-01-13T04:06:22.701Z,59.06
2023-01-13T04:07:22.700Z,59.16
2023-01-13T04:08:22.650Z,59.16
2023-01-13T04:09:22.637Z,59.16
2023-01-13T04:10:22.638Z,59.16
2023-01-13T04:11:22.610Z,59.36
2023-01-13T04:12:22.635Z,59.36
2023-01-13T04:13:22.618Z,59.16
2023-01-13T04:14:22.598Z,59.06
2023-01-13T04:15:22.572Z,58.96
2023-01-13T04:16:22.525Z,62.67
2023-01-13T04:17:22.499Z,60.57
2023-01-13T04:18:22.493Z,59.46
2023-01-13T04:19:22.494Z,59.16
2023-01-13T04:20:22.481Z,58.86
2023-01-13T04:21:22.447Z,58.96
2023-01-13T04:22:22.469Z,58.86
2023-01-13T04:23:22.442Z,58.96
2023-01-13T04:24:22.413Z,59.06
2023-01-13T04:25:22.449Z,59.66
2023-01-13T04:26:22.402Z,59.56
2023-01-13T04:27:22.402Z,59.26
2023-01-13T04:28:22.372Z,59.16
2023-01-13T04:29:22.381Z,59.56
2023-01-13T04:30:22.361Z,59.56
2023-01-13T04:31:22.442Z,59.46
2023-01-13T04:32:22.335Z,59.26
2023-01-13T04:33:22.341Z,59.16
2023-01-13T04:34:22.321Z,59.26
2023-01-13T04:35:22.320Z,59.16
2023-01-13T04:36:22.291Z,59.06
2023-01-13T04:37:22.326Z,59.36
2023-01-13T04:38:22.275Z,58.96
2023-01-13T04:39:22.278Z,58.86
2023-01-13T04:40:22.262Z,59.06
2023-01-13T04:41:22.262Z,59.56
2023-01-13T04:42:22.246Z,59.36
2023-01-13T04:43:22.294Z,59.06
2023-01-13T04:44:22.202Z,59.06
2023-01-13T04:45:22.210Z,62.77
2023-01-13T04:46:22.198Z,61.57
2023-01-13T04:47:22.187Z,61.17
2023-01-13T04:48:22.158Z,60.86
2023-01-13T04:49:22.215Z,60.77
2023-01-13T04:50:22.139Z,60.16
2023-01-13T04:51:22.143Z,59.77
2023-01-13T04:52:22.122Z,59.86
2023-01-13T04:53:22.128Z,59.66
2023-01-13T04:54:22.097Z,59.26
2023-01-13T04:55:22.124Z,59.36
2023-01-13T04:56:22.072Z,59.46
2023-01-13T04:57:22.080Z,59.26
2023-01-13T04:58:22.053Z,59.26
2023-01-13T04:59:22.061Z,59.26
2023-01-13T05:00:22.037Z,59.36
2023-01-13T05:01:22.239Z,59.26
2023-01-13T05:02:22.224Z,59.56
2023-01-13T05:03:22.012Z,59.86
2023-01-13T05:04:22.010Z,60.06
2023-01-13T05:05:21.995Z,60.86
2023-01-13T05:06:21.972Z,59.36
2023-01-13T05:07:21.993Z,57.26
2023-01-13T05:08:22.005Z,56.65
2023-01-13T05:09:22.029Z,56.05
2023-01-13T05:10:23.903Z,56.56
2023-01-13T05:11:21.999Z,57.26
2023-01-13T05:12:21.967Z,57.96
2023-01-13T05:13:21.991Z,58.66
2023-01-13T05:14:21.943Z,59.16
2023-01-13T05:15:21.947Z,59.56
2023-01-13T05:16:21.992Z,59.96
2023-01-13T05:17:21.920Z,60.16
2023-01-13T05:18:21.916Z,60.47
2023-01-13T05:19:21.935Z,60.57
2023-01-13T05:20:21.878Z,60.77
2023-01-13T05:21:21.885Z,60.86
2023-01-13T05:22:21.851Z,60.97
2023-01-13T05:23:21.884Z,60.97
2023-01-13T05:24:21.845Z,61.07
2023-01-13T05:25:21.836Z,61.17
2023-01-13T05:26:21.809Z,61.27
2023-01-13T05:27:21.816Z,61.36
2023-01-13T05:28:21.785Z,61.36
2023-01-13T05:29:21.817Z,61.47
2023-01-13T05:30:21.773Z,61.57
2023-01-13T05:31:21.834Z,61.67
2023-01-13T05:32:21.753Z,61.77
2023-01-13T05:33:21.715Z,61.77
2023-01-13T05:34:21.679Z,61.87
2023-01-13T05:35:21.705Z,61.87
2023-01-13T05:36:21.711Z,61.87
2023-01-13T05:37:21.653Z,61.97
2023-01-13T05:38:21.629Z,62.07
2023-01-13T05:39:21.642Z,62.07
2023-01-13T05:40:21.605Z,62.17
2023-01-13T05:41:21.661Z,62.27
2023-01-13T05:42:21.590Z,62.27
2023-01-13T05:43:21.594Z,62.27
2023-01-13T05:44:21.563Z,62.37
2023-01-13T05:45:21.564Z,62.37
2023-01-13T05:46:21.590Z,62.47
2023-01-13T05:47:21.563Z,62.57
2023-01-13T05:48:21.530Z,62.57
2023-01-13T05:49:21.524Z,62.67
2023-01-13T05:50:21.501Z,62.67
2023-01-13T05:51:21.535Z,62.67
2023-01-13T05:52:21.481Z,62.67
2023-01-13T05:53:21.486Z,62.67
2023-01-13T05:54:21.466Z,62.77
2023-01-13T05:55:21.483Z,62.87
2023-01-13T05:56:21.460Z,62.87
2023-01-13T05:57:21.441Z,62.97
2023-01-13T05:58:21.414Z,63.07
2023-01-13T05:59:21.425Z,63.17
2023-01-13T06:00:21.399Z,63.28
2023-01-13T06:01:21.468Z,63.47
2023-01-13T06:02:21.381Z,63.57
2023-01-13T06:03:21.395Z,63.57
2023-01-13T06:04:21.427Z,63.78
2023-01-13T06:05:21.360Z,63.67
2023-01-13T06:06:21.358Z,63.78
2023-01-13T06:07:21.364Z,63.87
2023-01-13T06:08:21.312Z,63.78
2023-01-13T06:09:21.330Z,63.78
2023-01-13T06:10:21.357Z,63.78
2023-01-13T06:11:21.351Z,63.87
2023-01-13T06:12:21.322Z,63.87
2023-01-13T06:13:21.361Z,63.87
2023-01-13T06:14:21.307Z,63.87
2023-01-13T06:15:21.311Z,63.87
2023-01-13T06:16:21.435Z,63.87
2023-01-13T06:17:21.287Z,64.07
2023-01-13T06:18:21.259Z,64.07
2023-01-13T06:19:21.287Z,63.98
2023-01-13T06:20:21.274Z,64.28
2023-01-13T06:21:21.242Z,64.18
2023-01-13T06:22:21.217Z,64.07
2023-01-13T06:23:21.231Z,64.18
2023-01-13T06:24:21.196Z,64.18
2023-01-13T06:25:21.226Z,64.07
2023-01-13T06:26:21.177Z,64.18
2023-01-13T06:27:21.172Z,64.37
2023-01-13T06:28:21.151Z,64.28
2023-01-13T06:29:21.151Z,64.18
2023-01-13T06:30:21.154Z,64.18
2023-01-13T06:31:21.231Z,64.18
2023-01-13T06:32:21.118Z,64.18
2023-01-13T06:33:21.070Z,64.18
2023-01-13T06:34:21.052Z,64.28
2023-01-13T06:35:21.031Z,64.37
2023-01-13T06:36:21.010Z,64.37
2023-01-13T06:37:21.087Z,64.58
2023-01-13T06:38:21.041Z,64.68
2023-01-13T06:39:21.053Z,64.58
2023-01-13T06:40:21.062Z,64.68
2023-01-13T06:41:21.036Z,64.78
2023-01-13T06:42:20.998Z,64.78
2023-01-13T06:43:21.029Z,64.68
2023-01-13T06:44:20.981Z,64.58
2023-01-13T06:45:20.983Z,64.78
2023-01-13T06:46:21.030Z,64.98
2023-01-13T06:47:20.954Z,64.88
2023-01-13T06:48:20.952Z,64.68
2023-01-13T06:49:21.780Z,64.18
2023-01-13T06:50:20.912Z,64.07
2023-01-13T06:51:20.938Z,64.18
2023-01-13T06:52:20.899Z,64.28
2023-01-13T06:53:20.924Z,64.28
2023-01-13T06:54:20.864Z,64.37
2023-01-13T06:55:20.903Z,64.48
2023-01-13T06:56:20.853Z,64.58
2023-01-13T06:57:20.844Z,64.58
2023-01-13T06:58:20.832Z,64.58
2023-01-13T06:59:20.946Z,64.58
2023-01-13T07:00:20.805Z,64.58
2023-01-13T07:01:21.008Z,64.58
2023-01-13T07:02:21.000Z,64.68
2023-01-13T07:03:20.790Z,64.68
2023-01-13T07:04:20.762Z,64.68
2023-01-13T07:05:20.765Z,64.58
2023-01-13T07:06:20.732Z,64.58
2023-01-13T07:07:20.758Z,64.68
2023-01-13T07:08:20.754Z,64.58
2023-01-13T07:09:20.713Z,64.68
2023-01-13T07:10:20.688Z,64.68
2023-01-13T07:11:20.733Z,64.68
2023-01-13T07:12:20.672Z,64.68
2023-01-13T07:13:20.669Z,64.78
2023-01-13T07:14:20.640Z,64.68
2023-01-13T07:15:20.643Z,64.68
2023-01-13T07:16:20.654Z,64.68
2023-01-13T07:17:20.647Z,64.68
2023-01-13T07:18:20.593Z,64.68
2023-01-13T07:19:22.164Z,64.68
2023-01-13T07:20:20.577Z,64.68
2023-01-13T07:21:20.571Z,64.68
2023-01-13T07:22:20.551Z,64.68
2023-01-13T07:23:20.579Z,64.68
2023-01-13T07:24:20.528Z,64.78
2023-01-13T07:25:20.529Z,64.68
2023-01-13T07:26:20.503Z,64.68
2023-01-13T07:27:20.509Z,64.68
2023-01-13T07:28:20.480Z,64.78
2023-01-13T07:29:20.512Z,64.78
2023-01-13T07:30:20.457Z,64.68
2023-01-13T07:31:20.519Z,64.68
2023-01-13T07:32:20.439Z,64.68
2023-01-13T07:33:20.451Z,64.68
2023-01-13T07:34:20.412Z,64.68
2023-01-13T07:35:20.445Z,64.68
2023-01-13T07:36:20.411Z,64.78
2023-01-13T07:37:20.408Z,64.68
2023-01-13T07:38:20.374Z,64.78
2023-01-13T07:39:20.375Z,64.78
2023-01-13T07:40:20.364Z,64.78
2023-01-13T07:41:20.371Z,64.78
2023-01-13T07:42:20.331Z,64.78
2023-01-13T07:43:20.336Z,64.78
2023-01-13T07:44:20.320Z,64.78
2023-01-13T07:45:20.314Z,64.78
2023-01-13T07:46:20.338Z,64.78
2023-01-13T07:47:20.287Z,64.78
2023-01-13T07:48:20.259Z,64.78
2023-01-13T07:49:20.275Z,64.78
2023-01-13T07:50:20.242Z,64.78
2023-01-13T07:51:20.248Z,64.78
2023-01-13T07:52:20.238Z,64.78
2023-01-13T07:53:20.221Z,64.78
2023-01-13T07:54:25.460Z,64.78
2023-01-13T07:55:20.215Z,64.78
2023-01-13T07:56:20.177Z,64.78
2023-01-13T07:57:20.209Z,64.78
2023-01-13T07:58:20.155Z,64.78
2023-01-13T07:59:20.155Z,64.78
2023-01-13T08:00:20.138Z,64.78
2023-01-13T08:01:20.212Z,64.78
2023-01-13T08:02:20.292Z,64.78
2023-01-13T08:03:20.163Z,64.78
2023-01-13T08:04:20.086Z,64.78
2023-01-13T08:05:20.102Z,64.78
2023-01-13T08:06:20.066Z,64.78
2023-01-13T08:07:20.076Z,64.78
2023-01-13T08:08:20.045Z,64.78
2023-01-13T08:09:20.029Z,64.78
2023-01-13T08:10:20.031Z,64.78
2023-01-13T08:11:22.141Z,64.88
2023-01-13T08:12:20.006Z,64.78
2023-01-13T08:13:20.296Z,64.88
2023-01-13T08:14:19.986Z,64.78
2023-01-13T08:15:19.966Z,64.88
2023-01-13T08:16:20.006Z,64.88
2023-01-13T08:17:20.691Z,64.88
2023-01-13T08:18:19.939Z,64.88
2023-01-13T08:19:19.945Z,64.88
2023-01-13T08:20:19.881Z,64.88
2023-01-13T08:21:19.915Z,64.88
2023-01-13T08:22:19.864Z,64.88
2023-01-13T08:23:19.852Z,64.88
2023-01-13T08:24:19.822Z,64.88
2023-01-13T08:25:19.842Z,64.88
2023-01-13T08:26:19.804Z,64.88
2023-01-13T08:27:19.868Z,64.88
2023-01-13T08:28:19.827Z,64.88
2023-01-13T08:29:19.834Z,64.88
2023-01-13T08:30:19.766Z,64.88
2023-01-13T08:31:20.091Z,64.88
2023-01-13T08:32:19.729Z,64.88
2023-01-13T08:33:19.870Z,64.88
2023-01-13T08:34:19.773Z,64.78
2023-01-13T08:35:19.770Z,64.88
2023-01-13T08:36:19.736Z,64.78
2023-01-13T08:37:19.784Z,64.78
2023-01-13T08:38:19.729Z,64.78
2023-01-13T08:39:19.724Z,64.78
2023-01-13T08:40:19.667Z,64.78
2023-01-13T08:41:19.684Z,64.78
2023-01-13T08:42:19.694Z,64.78
2023-01-13T08:43:19.636Z,64.78
2023-01-13T08:44:19.690Z,64.78
2023-01-13T08:45:19.649Z,64.88
2023-01-13T08:46:19.678Z,64.88
2023-01-13T08:47:19.619Z,64.88
2023-01-13T08:48:19.635Z,64.88
2023-01-13T08:49:19.598Z,64.88
2023-01-13T08:50:19.626Z,64.88
2023-01-13T08:51:19.530Z,64.88
2023-01-13T08:52:19.540Z,64.88
2023-01-13T08:53:19.503Z,64.88
2023-01-13T08:54:19.510Z,64.88
2023-01-13T08:55:19.500Z,64.88
2023-01-13T08:56:19.481Z,64.88
2023-01-13T08:57:19.600Z,64.88
2023-01-13T08:58:19.511Z,64.88
2023-01-13T08:59:19.510Z,64.98
2023-01-13T09:00:19.508Z,64.88
2023-01-13T09:01:19.559Z,64.88
2023-01-13T09:02:19.620Z,64.88
2023-01-13T09:03:19.453Z,64.98
2023-01-13T09:04:19.575Z,64.98
2023-01-13T09:05:19.467Z,64.98
2023-01-13T09:06:19.380Z,64.98
2023-01-13T09:07:19.346Z,64.98
2023-01-13T09:08:19.375Z,64.98
2023-01-13T09:09:19.322Z,64.98
2023-01-13T09:10:19.331Z,64.98
2023-01-13T09:11:19.329Z,64.98
2023-01-13T09:12:19.308Z,64.98
2023-01-13T09:13:19.286Z,64.98
2023-01-13T09:14:19.288Z,64.98
2023-01-13T09:15:19.259Z,64.98
2023-01-13T09:16:19.302Z,65.08
2023-01-13T09:17:19.256Z,64.98
2023-01-13T09:18:19.242Z,64.98
2023-01-13T09:19:19.234Z,64.98
2023-01-13T09:20:19.248Z,65.08
2023-01-13T09:21:19.194Z,65.08
2023-01-13T09:22:19.196Z,64.98
2023-01-13T09:23:19.171Z,65.08
2023-01-13T09:24:19.164Z,65.08
2023-01-13T09:25:19.170Z,65.08
2023-01-13T09:26:19.145Z,65.08
2023-01-13T09:27:19.168Z,65.08
2023-01-13T09:28:19.137Z,65.08
2023-01-13T09:29:19.116Z,65.08
2023-01-13T09:30:19.118Z,65.08
2023-01-13T09:31:19.144Z,65.08
2023-01-13T09:32:19.094Z,65.08
2023-01-13T09:33:19.177Z,65.08
2023-01-13T09:34:19.145Z,65.18
2023-01-13T09:35:19.093Z,65.18
2023-01-13T09:36:19.110Z,65.18
2023-01-13T09:37:19.018Z,65.18
2023-01-13T09:38:19.042Z,65.18
2023-01-13T09:39:19.022Z,65.18
2023-01-13T09:40:18.999Z,65.18
2023-01-13T09:41:19.024Z,65.18
2023-01-13T09:42:19.029Z,65.18
2023-01-13T09:43:18.958Z,65.18
2023-01-13T09:44:18.955Z,65.18
2023-01-13T09:45:19.015Z,65.18
2023-01-13T09:46:18.968Z,65.18
2023-01-13T09:47:18.900Z,65.28
2023-01-13T09:48:18.962Z,65.28
2023-01-13T09:49:18.912Z,65.28
2023-01-13T09:50:18.883Z,65.28
2023-01-13T09:51:18.898Z,65.28
2023-01-13T09:52:18.922Z,65.28
2023-01-13T09:53:18.884Z,65.28
2023-01-13T09:54:18.895Z,65.28
2023-01-13T09:55:18.836Z,65.28
2023-01-13T09:56:18.819Z,65.38
2023-01-13T09:57:18.785Z,65.28
2023-01-13T09:58:18.791Z,65.38
2023-01-13T09:59:18.763Z,65.38
2023-01-13T10:00:18.765Z,65.38
2023-01-13T10:01:18.847Z,65.38
2023-01-13T10:02:18.763Z,65.28
2023-01-13T10:03:18.794Z,65.28
2023-01-13T10:04:18.833Z,65.28
2023-01-13T10:05:18.805Z,65.28
2023-01-13T10:06:18.712Z,65.28
2023-01-13T10:07:19.115Z,65.28
2023-01-13T10:08:18.732Z,65.28
2023-01-13T10:09:18.710Z,65.28
2023-01-13T10:10:18.712Z,65.28
2023-01-13T10:11:18.704Z,65.28
2023-01-13T10:12:18.731Z,65.28
2023-01-13T10:13:18.664Z,65.28
2023-01-13T10:14:18.633Z,65.28
2023-01-13T10:15:18.586Z,65.28
2023-01-13T10:16:18.691Z,65.28
2023-01-13T10:17:18.572Z,65.28
2023-01-13T10:18:18.666Z,65.28
2023-01-13T10:19:18.558Z,65.28
2023-01-13T10:20:18.546Z,65.38
2023-01-13T10:21:18.578Z,65.28
2023-01-13T10:22:18.536Z,65.28
2023-01-13T10:23:18.559Z,65.28
2023-01-13T10:24:18.610Z,65.38
2023-01-13T10:25:18.475Z,65.28
2023-01-13T10:26:18.532Z,65.28
2023-01-13T10:27:18.463Z,65.38
2023-01-13T10:28:19.350Z,65.38
2023-01-13T10:29:18.435Z,65.38
2023-01-13T10:30:18.458Z,65.38
2023-01-13T10:31:18.452Z,65.38
2023-01-13T10:32:18.417Z,65.38
2023-01-13T10:33:18.400Z,65.38
2023-01-13T10:34:18.457Z,65.38
2023-01-13T10:35:18.421Z,65.38
2023-01-13T10:36:18.447Z,65.38
2023-01-13T10:37:18.403Z,65.38
2023-01-13T10:38:18.503Z,65.38
2023-01-13T10:39:18.342Z,65.38
2023-01-13T10:40:18.448Z,65.38
2023-01-13T10:41:18.363Z,65.38
2023-01-13T10:42:18.322Z,65.38
2023-01-13T10:43:18.312Z,65.38
2023-01-13T10:44:18.305Z,65.38
2023-01-13T10:45:18.276Z,65.38
2023-01-13T10:46:18.343Z,65.38
2023-01-13T10:47:18.276Z,65.38
2023-01-13T10:48:18.367Z,65.38
2023-01-13T10:49:18.257Z,65.38
2023-01-13T10:50:18.429Z,65.38
2023-01-13T10:51:18.278Z,65.38
2023-01-13T10:52:18.392Z,65.38
2023-01-13T10:53:18.276Z,65.38
2023-01-13T10:54:18.265Z,65.38
2023-01-13T10:55:18.224Z,65.38
2023-01-13T10:56:18.237Z,65.38
2023-01-13T10:57:18.225Z,65.38
2023-01-13T10:58:18.233Z,65.38
2023-01-13T10:59:18.123Z,65.38
2023-01-13T11:00:18.173Z,65.38
2023-01-13T11:01:18.294Z,65.38
2023-01-13T11:02:25.696Z,65.38
2023-01-13T11:03:18.131Z,65.38
2023-01-13T11:04:18.089Z,65.38
2023-01-13T11:05:18.087Z,65.38
2023-01-13T11:06:18.064Z,65.28
2023-01-13T11:07:18.069Z,65.28
2023-01-13T11:08:18.132Z,65.38
2023-01-13T11:09:18.030Z,65.38
2023-01-13T11:10:18.076Z,65.28
2023-01-13T11:11:18.015Z,65.28
2023-01-13T11:12:18.041Z,65.38
2023-01-13T11:13:18.010Z,65.28
2023-01-13T11:14:17.996Z,65.28
2023-01-13T11:15:17.954Z,65.28
2023-01-13T11:16:18.040Z,65.28
2023-01-13T11:17:17.953Z,65.38
2023-01-13T11:18:17.963Z,65.38
2023-01-13T11:19:17.922Z,65.38
2023-01-13T11:20:17.969Z,65.38
2023-01-13T11:21:17.944Z,65.38
2023-01-13T11:22:17.892Z,65.31
2023-01-13T11:23:17.880Z,65.28
2023-01-13T11:24:17.905Z,65.28
2023-01-13T11:25:17.849Z,65.38
2023-01-13T11:26:17.856Z,65.38
2023-01-13T11:27:17.831Z,65.38
2023-01-13T11:28:17.859Z,65.28
2023-01-13T11:29:17.869Z,65.28
2023-01-13T11:30:17.839Z,65.41
2023-01-13T11:31:17.838Z,65.38
2023-01-13T11:32:17.789Z,65.41
2023-01-13T11:33:17.824Z,65.38
2023-01-13T11:34:17.832Z,65.38
2023-01-13T11:35:17.794Z,65.38
2023-01-13T11:36:20.381Z,65.41
2023-01-13T11:37:17.771Z,65.38
2023-01-13T11:38:17.773Z,65.41
2023-01-13T11:39:17.753Z,65.38
2023-01-13T11:40:17.754Z,65.41
2023-01-13T11:41:17.697Z,65.41
2023-01-13T11:42:17.674Z,65.41
2023-01-13T11:43:17.655Z,65.38
2023-01-13T11:44:17.665Z,65.41
2023-01-13T11:45:17.681Z,65.38
2023-01-13T11:46:17.788Z,65.38
2023-01-13T11:47:17.684Z,65.38
2023-01-13T11:48:17.620Z,65.38
2023-01-13T11:49:17.595Z,65.38
2023-01-13T11:50:17.595Z,65.41
2023-01-13T11:51:17.577Z,65.41
2023-01-13T11:52:17.595Z,65.38
2023-01-13T11:53:17.545Z,65.38
2023-01-13T11:54:17.543Z,65.41
2023-01-13T11:55:17.576Z,65.41
2023-01-13T11:56:17.587Z,65.38
2023-01-13T11:57:17.556Z,65.41
2023-01-13T11:58:17.653Z,65.38
2023-01-13T11:59:17.544Z,65.41
2023-01-13T12:00:17.530Z,65.48
2023-01-13T12:01:17.667Z,65.38
2023-01-13T12:02:17.675Z,65.38
2023-01-13T12:03:17.559Z,65.41
2023-01-13T12:04:17.441Z,65.41
2023-01-13T12:05:17.409Z,65.51
2023-01-13T12:06:17.444Z,65.38
2023-01-13T12:07:17.393Z,65.41
2023-01-13T12:08:17.402Z,65.41
2023-01-13T12:09:17.450Z,65.48
2023-01-13T12:10:17.381Z,65.51
2023-01-13T12:11:17.350Z,65.41
2023-01-13T12:12:17.407Z,65.41
2023-01-13T12:13:17.374Z,65.41
2023-01-13T12:14:17.376Z,65.41
2023-01-13T12:15:17.382Z,65.51
2023-01-13T12:16:17.425Z,65.51
2023-01-13T12:17:17.331Z,65.41
2023-01-13T12:18:17.293Z,65.41
2023-01-13T12:19:17.342Z,65.41
2023-01-13T12:20:17.312Z,65.51
2023-01-13T12:21:17.246Z,65.51
2023-01-13T12:22:17.235Z,65.41
2023-01-13T12:23:17.219Z,65.41
2023-01-13T12:24:17.301Z,65.41
2023-01-13T12:25:17.255Z,65.41
2023-01-13T12:26:17.254Z,65.41
2023-01-13T12:27:17.184Z,65.41
2023-01-13T12:28:17.243Z,65.38
2023-01-13T12:29:17.154Z,65.41
2023-01-13T12:30:17.173Z,65.41
2023-01-13T12:31:17.156Z,65.41
2023-01-13T12:32:17.140Z,65.41
2023-01-13T12:33:18.759Z,65.41
2023-01-13T12:34:17.114Z,65.41
2023-01-13T12:35:17.110Z,65.51
2023-01-13T12:36:17.083Z,65.51
2023-01-13T12:37:17.063Z,65.51
2023-01-13T12:38:17.116Z,65.51
2023-01-13T12:39:17.047Z,65.51
2023-01-13T12:40:17.066Z,65.51
2023-01-13T12:41:17.082Z,65.48
2023-01-13T12:42:17.080Z,65.48
2023-01-13T12:43:17.040Z,65.51
2023-01-13T12:44:17.121Z,65.51
2023-01-13T12:45:18.556Z,65.51
2023-01-13T12:46:17.033Z,65.48
2023-01-13T12:47:16.944Z,65.41
2023-01-13T12:48:16.955Z,65.41
2023-01-13T12:49:16.921Z,65.51
2023-01-13T12:50:16.950Z,65.51
2023-01-13T12:51:18.240Z,65.38
2023-01-13T12:52:16.907Z,65.41